Time;durP1;ratioP1;P1;durP2;ratioP2;P2;SDS_P1;SDS_P2;PMS_P1;PMS_P2;Temp;Humidity;BMP_temperature;BMP_pressure;BME280_temperature;BME280_humidity;BME280_pressure;Samples;Min_cycle;Max_cycle;Signal;HPM_P1;HPM_P2
2022/10/22 00:00:08;;;;;;;27.55;21.35;;;14.40;99.90;;;;;;5048414;28;20271;-77
2022/10/22 00:02:35;;;;;;;27.52;21.92;;;14.50;99.90;;;;;;5051575;28;20282;-75
2022/10/22 00:05:02;;;;;;;32.50;25.23;;;14.40;99.90;;;;;;5054314;28;20254;-73
2022/10/22 00:07:28;;;;;;;23.40;20.67;;;14.40;99.90;;;;;;5058097;28;20310;-74
2022/10/22 00:09:55;;;;;;;26.35;19.75;;;14.40;99.90;;;;;;5061282;28;20197;-76
2022/10/22 00:12:23;;;;;;;34.45;25.75;;;14.50;99.90;;;;;;5060440;28;20209;-73
2022/10/22 00:14:51;;;;;;;36.75;26.45;;;14.50;99.90;;;;;;5053606;28;20566;-75
2022/10/22 00:17:18;;;;;;;30.45;24.35;;;14.40;99.90;;;;;;5053124;28;20574;-77
2022/10/22 00:19:45;;;;;;;34.33;26.30;;;14.30;99.90;;;;;;5051961;28;20282;-75
2022/10/22 00:22:12;;;;;;;39.85;27.35;;;14.30;99.90;;;;;;5053474;28;20255;-73
2022/10/22 00:24:40;;;;;;;36.92;27.77;;;14.30;99.90;;;;;;5053474;28;20287;-74
2022/10/22 00:27:08;;;;;;;34.70;24.50;;;14.30;99.90;;;;;;5055046;28;20200;-76
2022/10/22 00:29:35;;;;;;;24.65;21.90;;;14.20;99.90;;;;;;5057390;28;20203;-74
2022/10/22 00:32:03;;;;;;;35.33;26.70;;;14.20;99.90;;;;;;5062433;28;20214;-74
2022/10/22 00:34:30;;;;;;;27.85;22.33;;;14.20;99.90;;;;;;5063067;28;20219;-72
2022/10/22 00:36:57;;;;;;;31.90;23.88;;;14.20;99.90;;;;;;5054077;28;20283;-75
2022/10/22 00:39:26;;;;;;;35.08;26.90;;;14.20;99.90;;;;;;5052635;28;20330;-74
2022/10/22 00:41:54;;;;;;;27.13;22.27;;;14.10;99.90;;;;;;5057231;28;20277;-75
2022/10/22 00:45:13;;;;;;;31.33;24.75;;;14.10;99.90;;;;;;5056732;28;20238;-76
2022/10/22 00:47:44;;;;;;;27.23;22.00;;;14.10;99.90;;;;;;4974356;28;20540;-77
2022/10/22 00:50:15;;;;;;;24.23;21.52;;;14.10;99.90;;;;;;4976431;28;20341;-76
2022/10/22 00:52:42;;;;;;;34.25;24.15;;;14.10;99.90;;;;;;5014279;28;20267;-73
2022/10/22 00:55:10;;;;;;;26.63;20.75;;;14.10;99.90;;;;;;5051640;28;20201;-74
2022/10/22 00:57:37;;;;;;;28.08;20.35;;;14.20;99.90;;;;;;5049151;28;20634;-75
2022/10/22 01:00:06;;;;;;;31.67;26.02;;;14.20;99.90;;;;;;5048739;28;20269;-76
2022/10/22 01:02:33;;;;;;;41.20;26.42;;;14.20;99.90;;;;;;5052061;28;20298;-74
2022/10/22 01:05:02;;;;;;;30.60;23.48;;;14.10;99.90;;;;;;5053647;28;20561;-74
2022/10/22 01:07:29;;;;;;;39.72;28.35;;;14.10;99.90;;;;;;5052657;28;20322;-75
2022/10/22 01:10:08;;;;;;;38.42;26.02;;;14.10;99.90;;;;;;5053731;28;20286;-76
2022/10/22 01:12:46;;;;;;;39.70;27.27;;;14.10;99.90;;;;;;5051560;28;20203;-75
2022/10/22 01:15:22;;;;;;;52.40;28.50;;;14.20;99.90;;;;;;5055865;28;20243;-76
2022/10/22 01:17:58;;;;;;;37.42;26.75;;;14.20;99.90;;;;;;5056381;28;20227;-74
2022/10/22 01:20:49;;;;;;;24.85;21.73;;;14.10;99.90;;;;;;5054977;28;20345;-76
2022/10/22 01:23:37;;;;;;;29.10;23.58;;;14.10;99.90;;;;;;5058254;28;20309;-77
2022/10/22 01:26:10;;;;;;;35.88;25.42;;;14.00;99.90;;;;;;5058495;28;20219;-76
2022/10/22 01:28:49;;;;;;;21.15;18.95;;;13.90;99.90;;;;;;5056379;28;20258;-77
2022/10/22 01:31:18;;;;;;;26.52;21.85;;;13.90;99.90;;;;;;5056362;28;20208;-75
2022/10/22 01:33:47;;;;;;;22.50;19.30;;;13.90;99.90;;;;;;5056591;28;20224;-77
2022/10/22 01:36:15;;;;;;;33.33;21.70;;;13.90;99.90;;;;;;5056084;28;20199;-74
2022/10/22 01:38:53;;;;;;;42.42;25.70;;;13.90;99.90;;;;;;5056195;28;20307;-77
2022/10/22 01:41:28;;;;;;;28.23;21.38;;;13.90;99.90;;;;;;5058876;28;20199;-73
2022/10/22 01:43:56;;;;;;;32.13;25.55;;;13.80;99.90;;;;;;5055041;28;20264;-75
2022/10/22 01:46:57;;;;;;;33.35;22.42;;;13.80;99.90;;;;;;5057159;28;20204;-73
2022/10/22 01:49:33;;;;;;;32.50;23.90;;;13.80;99.90;;;;;;5057092;28;20588;-75
2022/10/22 01:52:18;;;;;;;39.03;25.73;;;13.70;99.90;;;;;;5056223;28;20210;-73
2022/10/22 01:54:51;;;;;;;28.98;22.52;;;13.70;99.90;;;;;;5055820;28;20184;-76
2022/10/22 01:57:24;;;;;;;48.20;28.27;;;13.70;99.90;;;;;;5056288;28;20210;-74
2022/10/22 02:00:10;;;;;;;21.70;19.40;;;13.70;99.90;;;;;;5065413;28;20214;-72
2022/10/22 02:02:42;;;;;;;37.47;25.50;;;13.70;99.90;;;;;;5056218;28;20215;-74
2022/10/22 02:05:13;;;;;;;22.23;19.83;;;13.60;99.90;;;;;;5044839;28;20728;-74
2022/10/22 02:08:01;;;;;;;26.90;21.70;;;13.60;99.90;;;;;;5055784;28;20223;-73
2022/10/22 02:10:29;;;;;;;43.85;26.02;;;13.60;99.90;;;;;;5056297;28;20282;-74
2022/10/22 02:12:58;;;;;;;31.33;23.90;;;13.60;99.90;;;;;;5054907;28;20275;-74
2022/10/22 02:15:52;;;;;;;39.75;26.02;;;13.60;99.90;;;;;;5056495;28;20302;-75
2022/10/22 02:18:21;;;;;;;44.17;27.30;;;13.60;99.90;;;;;;5052821;28;20224;-76
2022/10/22 02:20:48;;;;;;;39.30;27.55;;;13.50;99.90;;;;;;5047175;28;20208;-76
2022/10/22 02:23:15;;;;;;;47.40;29.20;;;13.50;99.90;;;;;;5052734;28;20218;-76
2022/10/22 02:25:49;;;;;;;33.22;26.90;;;13.50;99.90;;;;;;5055395;28;20285;-73
2022/10/22 02:28:23;;;;;;;37.38;25.88;;;13.30;99.90;;;;;;5042778;28;20306;-75
2022/10/22 02:30:57;;;;;;;40.03;26.52;;;13.40;99.90;;;;;;5051159;28;20650;-73
2022/10/22 02:33:28;;;;;;;25.98;22.73;;;13.40;99.90;;;;;;5043141;28;20240;-74
2022/10/22 02:35:56;;;;;;;33.75;24.38;;;13.40;99.90;;;;;;5057629;28;20303;-72
2022/10/22 02:38:24;;;;;;;40.58;28.27;;;13.40;99.90;;;;;;5058901;28;20231;-74
2022/10/22 02:40:51;;;;;;;32.88;24.05;;;13.40;99.90;;;;;;5060791;28;20286;-72
2022/10/22 02:43:18;;;;;;;35.65;24.55;;;13.30;99.90;;;;;;5040734;28;20303;-73
2022/10/22 02:45:46;;;;;;;28.40;22.80;;;13.30;99.90;;;;;;5054768;28;20206;-73
2022/10/22 02:48:14;;;;;;;33.75;27.08;;;13.30;99.90;;;;;;5053942;28;20622;-75
2022/10/22 02:50:41;;;;;;;31.83;25.35;;;13.40;99.90;;;;;;5053888;28;20291;-74
2022/10/22 02:53:11;;;;;;;30.80;24.67;;;13.40;99.90;;;;;;5054536;28;20294;-77
2022/10/22 02:55:38;;;;;;;23.98;21.05;;;13.40;99.90;;;;;;5054238;28;20279;-74
2022/10/22 02:58:05;;;;;;;24.65;21.13;;;13.40;99.90;;;;;;5054318;28;20316;-75
2022/10/22 03:00:32;;;;;;;23.88;20.85;;;13.40;99.90;;;;;;5054649;28;20226;-73
2022/10/22 03:02:58;;;;;;;32.15;24.15;;;13.40;99.90;;;;;;5054353;28;20239;-75
2022/10/22 03:05:27;;;;;;;35.42;25.88;;;13.40;99.90;;;;;;5053785;28;20256;-76
2022/10/22 03:07:54;;;;;;;24.40;21.55;;;13.30;99.90;;;;;;5053828;28;20261;-75
2022/10/22 03:10:23;;;;;;;32.60;23.13;;;13.40;99.90;;;;;;5053497;28;20254;-77
2022/10/22 03:12:50;;;;;;;24.23;20.98;;;13.30;99.90;;;;;;5053104;28;20195;-73
2022/10/22 03:15:17;;;;;;;25.77;21.30;;;13.40;99.90;;;;;;5052958;28;20286;-74
2022/10/22 03:17:44;;;;;;;24.85;20.48;;;13.50;99.90;;;;;;5051225;28;20647;-75
2022/10/22 03:20:11;;;;;;;22.77;20.17;;;13.40;99.90;;;;;;5055996;28;20231;-71
2022/10/22 03:22:42;;;;;;;41.63;27.75;;;13.50;99.90;;;;;;5062211;28;20286;-74
2022/10/22 03:25:13;;;;;;;36.50;26.13;;;13.40;99.90;;;;;;5064486;28;20241;-73
2022/10/22 03:27:41;;;;;;;29.67;21.88;;;13.40;99.90;;;;;;5062687;28;20287;-74
2022/10/22 03:30:09;;;;;;;23.90;21.30;;;13.40;99.90;;;;;;5060965;28;20282;-77
2022/10/22 03:32:36;;;;;;;20.80;18.70;;;13.40;99.90;;;;;;5055068;28;20706;-75
2022/10/22 03:35:04;;;;;;;26.23;21.85;;;13.50;99.90;;;;;;5054278;28;20223;-75
2022/10/22 03:37:32;;;;;;;23.17;20.45;;;13.50;99.90;;;;;;5053588;28;20226;-76
2022/10/22 03:40:01;;;;;;;21.95;18.98;;;13.50;99.90;;;;;;5053396;28;20196;-77
2022/10/22 03:42:28;;;;;;;26.65;21.13;;;13.50;99.90;;;;;;5049219;28;20306;-73
2022/10/22 03:44:55;;;;;;;30.77;21.83;;;13.50;99.90;;;;;;5057286;28;20287;-75
2022/10/22 03:47:23;;;;;;;34.67;23.63;;;13.50;99.90;;;;;;5070833;28;20271;-77
2022/10/22 03:49:50;;;;;;;24.80;20.77;;;13.50;99.90;;;;;;5054359;28;20206;-75
2022/10/22 03:52:17;;;;;;;31.65;25.05;;;13.40;99.90;;;;;;5055971;28;20245;-76
2022/10/22 03:54:44;;;;;;;36.85;23.95;;;13.40;99.90;;;;;;5059317;28;20744;-76
2022/10/22 03:57:12;;;;;;;24.30;19.92;;;13.30;99.90;;;;;;5057796;28;20679;-73
2022/10/22 03:59:41;;;;;;;35.03;23.35;;;13.30;99.90;;;;;;5054424;28;20239;-74
2022/10/22 04:02:09;;;;;;;24.83;21.63;;;13.30;99.90;;;;;;5061801;28;20738;-75
2022/10/22 04:04:36;;;;;;;25.67;17.75;;;13.30;99.90;;;;;;5049672;28;20224;-77
2022/10/22 04:07:03;;;;;;;30.42;21.10;;;13.30;99.90;;;;;;5054175;28;20282;-74
2022/10/22 04:09:31;;;;;;;27.08;22.83;;;13.20;99.90;;;;;;5054926;28;20278;-74
2022/10/22 04:11:58;;;;;;;30.00;20.70;;;13.20;99.90;;;;;;5053542;28;20203;-75
2022/10/22 04:14:27;;;;;;;35.22;26.02;;;13.20;99.90;;;;;;5058609;28;20271;-73
2022/10/22 04:16:53;;;;;;;30.23;23.08;;;13.20;99.90;;;;;;5057339;28;20208;-75
2022/10/22 04:19:20;;;;;;;35.38;24.23;;;13.30;99.90;;;;;;5062124;28;20326;-77
2022/10/22 04:21:47;;;;;;;25.45;20.92;;;13.30;99.90;;;;;;5055601;28;20206;-73
2022/10/22 04:24:14;;;;;;;31.48;23.95;;;13.30;99.90;;;;;;5062484;28;20247;-72
2022/10/22 04:26:41;;;;;;;28.02;21.33;;;13.40;99.90;;;;;;5061163;28;20242;-73
2022/10/22 04:29:09;;;;;;;27.60;21.63;;;13.40;99.90;;;;;;5057342;28;20277;-74
2022/10/22 04:31:37;;;;;;;29.25;21.70;;;13.40;99.90;;;;;;5042616;28;20290;-75
2022/10/22 04:34:04;;;;;;;27.35;20.85;;;13.50;99.90;;;;;;5054321;28;20239;-74
2022/10/22 04:36:31;;;;;;;20.92;18.77;;;13.50;99.90;;;;;;5048585;28;20268;-75
2022/10/22 04:38:59;;;;;;;20.35;17.75;;;13.50;99.90;;;;;;5050971;28;20219;-73
2022/10/22 04:41:28;;;;;;;22.95;18.42;;;13.50;99.90;;;;;;5049802;28;20283;-74
2022/10/22 04:43:56;;;;;;;23.25;18.17;;;13.60;99.90;;;;;;5048886;28;20634;-78
2022/10/22 04:46:23;;;;;;;28.42;23.15;;;13.50;99.90;;;;;;5047778;28;20246;-74
2022/10/22 04:48:52;;;;;;;32.28;22.73;;;13.50;99.90;;;;;;5048803;28;20251;-76
2022/10/22 04:51:21;;;;;;;25.95;19.63;;;13.60;99.90;;;;;;5050830;28;20222;-75
2022/10/22 04:53:48;;;;;;;28.35;22.50;;;13.50;99.90;;;;;;5048757;28;20210;-73
2022/10/22 04:56:19;;;;;;;26.70;21.25;;;13.60;99.90;;;;;;5051657;28;20196;-74
2022/10/22 04:58:47;;;;;;;28.08;20.40;;;13.50;99.90;;;;;;5051824;28;20694;-75
2022/10/22 05:01:16;;;;;;;22.42;20.10;;;13.50;99.90;;;;;;5049305;28;20204;-76
2022/10/22 05:03:43;;;;;;;24.48;20.73;;;13.50;99.90;;;;;;5049804;28;20309;-73
2022/10/22 05:06:12;;;;;;;22.08;19.67;;;13.50;99.90;;;;;;5051821;28;20195;-75
2022/10/22 05:08:39;;;;;;;26.45;20.27;;;13.60;99.90;;;;;;5055247;28;20224;-75
2022/10/22 05:11:14;;;;;;;26.48;21.08;;;13.60;99.90;;;;;;5047371;28;20292;-76
2022/10/22 05:13:41;;;;;;;30.20;23.60;;;13.60;99.90;;;;;;5051568;28;20711;-76
2022/10/22 05:16:09;;;;;;;27.38;20.48;;;13.50;99.90;;;;;;5046497;28;20722;-74
2022/10/22 05:18:36;;;;;;;26.05;20.13;;;13.50;99.90;;;;;;5053902;28;20222;-76
2022/10/22 05:21:04;;;;;;;27.98;21.50;;;13.50;99.90;;;;;;5046935;28;20588;-75
2022/10/22 05:23:32;;;;;;;27.42;20.83;;;13.50;99.90;;;;;;5048667;28;20251;-76
2022/10/22 05:26:02;;;;;;;22.67;20.20;;;13.50;99.90;;;;;;5052147;28;20638;-76
2022/10/22 05:28:29;;;;;;;23.88;21.20;;;13.50;99.90;;;;;;5045252;28;20665;-74
2022/10/22 05:30:58;;;;;;;32.38;24.58;;;13.50;99.90;;;;;;5051797;28;20298;-75
2022/10/22 05:33:25;;;;;;;27.88;22.98;;;13.40;99.90;;;;;;5062889;28;20199;-74
2022/10/22 05:35:52;;;;;;;30.63;22.23;;;13.40;99.90;;;;;;5063221;28;20318;-75
2022/10/22 05:38:20;;;;;;;31.77;24.75;;;13.50;99.90;;;;;;5052198;28;20219;-75
2022/10/22 05:40:48;;;;;;;30.98;26.15;;;13.30;99.90;;;;;;5052028;28;20279;-75
2022/10/22 05:43:15;;;;;;;30.85;22.45;;;13.30;99.90;;;;;;5052563;28;20630;-72
2022/10/22 05:45:43;;;;;;;25.85;20.33;;;13.30;99.90;;;;;;5052808;28;20207;-76
2022/10/22 05:48:10;;;;;;;38.55;25.52;;;13.30;99.90;;;;;;5052096;28;20251;-76
2022/10/22 05:50:37;;;;;;;30.35;22.92;;;13.20;99.90;;;;;;5061896;28;20204;-74
2022/10/22 05:53:05;;;;;;;37.50;25.05;;;13.20;99.90;;;;;;5062338;28;20303;-73
2022/10/22 05:55:37;;;;;;;26.55;20.42;;;13.10;99.90;;;;;;5051388;28;20234;-76
2022/10/22 05:58:06;;;;;;;28.17;21.60;;;13.10;99.90;;;;;;5053431;28;20228;-77
2022/10/22 06:00:33;;;;;;;30.80;23.48;;;13.10;99.90;;;;;;5054439;28;20196;-77
2022/10/22 06:03:00;;;;;;;33.33;23.45;;;13.30;99.90;;;;;;5056139;28;20227;-76
2022/10/22 06:05:27;;;;;;;29.30;24.77;;;13.10;99.90;;;;;;5057628;28;20655;-75
2022/10/22 06:07:55;;;;;;;27.85;21.85;;;13.20;99.90;;;;;;5062470;28;20278;-78
2022/10/22 06:10:22;;;;;;;30.23;22.23;;;13.20;99.90;;;;;;5067807;28;20235;-75
2022/10/22 06:12:50;;;;;;;29.48;23.65;;;13.20;99.90;;;;;;5070110;28;20222;-72
2022/10/22 06:15:19;;;;;;;33.45;23.60;;;13.10;99.90;;;;;;5070894;28;20204;-73
2022/10/22 06:17:46;;;;;;;30.92;22.88;;;13.10;99.90;;;;;;5065909;28;20215;-73
2022/10/22 06:20:14;;;;;;;25.58;19.90;;;13.20;99.90;;;;;;5055187;28;20267;-75
2022/10/22 06:22:41;;;;;;;37.20;25.70;;;13.20;99.90;;;;;;5054959;28;20290;-76
2022/10/22 06:25:09;;;;;;;23.10;20.25;;;13.20;99.90;;;;;;5056547;28;20769;-76
2022/10/22 06:27:36;;;;;;;28.70;22.15;;;13.20;99.90;;;;;;5055377;28;20721;-74
2022/10/22 06:30:03;;;;;;;24.48;19.35;;;13.20;99.90;;;;;;5049425;28;20204;-76
2022/10/22 06:32:33;;;;;;;28.25;23.33;;;13.20;99.90;;;;;;5052565;28;20290;-72
2022/10/22 06:35:00;;;;;;;31.55;22.13;;;13.20;99.90;;;;;;5055093;28;20666;-75
2022/10/22 06:37:27;;;;;;;21.88;19.58;;;13.30;99.90;;;;;;5054340;28;20235;-75
2022/10/22 06:39:54;;;;;;;33.97;23.58;;;13.40;99.90;;;;;;5054716;28;20287;-73
2022/10/22 06:42:21;;;;;;;26.58;21.33;;;13.30;99.90;;;;;;5048916;28;20248;-75
2022/10/22 06:44:47;;;;;;;35.97;24.30;;;13.30;99.90;;;;;;5050948;28;20270;-78
2022/10/22 06:47:14;;;;;;;35.15;27.65;;;13.40;99.90;;;;;;5050660;28;20241;-78
2022/10/22 06:49:43;;;;;;;37.78;28.02;;;13.40;99.90;;;;;;5050085;28;20284;-77
2022/10/22 06:52:09;;;;;;;25.95;21.33;;;13.50;99.90;;;;;;5050194;28;20298;-75
2022/10/22 06:54:37;;;;;;;27.95;21.70;;;13.50;99.90;;;;;;5052554;28;20285;-75
2022/10/22 06:57:03;;;;;;;32.35;24.08;;;13.70;99.90;;;;;;5052710;28;20530;-78
2022/10/22 06:59:31;;;;;;;25.45;20.80;;;14.10;99.90;;;;;;5051103;28;20655;-74
2022/10/22 07:01:58;;;;;;;24.57;20.07;;;14.80;99.90;;;;;;5053933;28;20209;-76
2022/10/22 07:04:24;;;;;;;18.67;16.67;;;15.60;99.90;;;;;;5050784;28;20504;-79
2022/10/22 07:06:54;;;;;;;17.90;12.43;;;16.10;99.90;;;;;;5051068;28;20508;-77
2022/10/22 07:09:21;;;;;;;16.03;13.73;;;16.60;99.90;;;;;;5053714;28;20516;-74
2022/10/22 07:11:48;;;;;;;11.77;10.57;;;17.20;99.90;;;;;;5046745;28;20569;-76
2022/10/22 07:14:15;;;;;;;12.47;8.87;;;17.90;99.90;;;;;;5053264;28;20538;-76
2022/10/22 07:16:44;;;;;;;16.70;11.27;;;18.60;99.90;;;;;;5053917;28;20456;-76
2022/10/22 07:19:12;;;;;;;13.53;10.53;;;19.10;99.90;;;;;;5058613;28;20504;-77
2022/10/22 07:21:39;;;;;;;13.57;9.37;;;19.70;99.90;;;;;;5068726;28;20480;-76
2022/10/22 07:24:08;;;;;;;9.77;8.70;;;20.20;99.90;;;;;;5059945;28;20507;-80
2022/10/22 07:26:35;;;;;;;10.30;9.00;;;20.70;99.90;;;;;;5055453;28;20473;-78
2022/10/22 07:29:03;;;;;;;12.10;9.50;;;20.90;99.90;;;;;;5055232;28;20493;-80
2022/10/22 07:31:30;;;;;;;12.10;8.63;;;21.30;99.90;;;;;;5053338;28;20442;-77
2022/10/22 07:33:58;;;;;;;10.60;9.50;;;21.70;99.90;;;;;;5055060;28;20438;-80
2022/10/22 07:36:25;;;;;;;12.87;8.53;;;22.30;99.90;;;;;;5055806;28;20861;-78
2022/10/22 07:38:56;;;;;;;9.50;8.63;;;22.10;99.90;;;;;;5054737;28;20492;-79
2022/10/22 07:41:25;;;;;;;9.20;8.30;;;22.20;99.90;;;;;;5056622;28;20951;-76
2022/10/22 07:43:52;;;;;;;10.60;9.60;;;22.80;99.90;;;;;;5046442;28;20446;-77
2022/10/22 07:46:20;;;;;;;13.13;10.70;;;23.30;99.90;;;;;;5046423;28;20493;-77
2022/10/22 07:48:47;;;;;;;11.67;7.90;;;23.70;99.90;;;;;;5046877;28;20471;-77
2022/10/22 07:51:15;;;;;;;10.93;9.80;;;24.10;99.90;;;;;;5033873;28;20455;-78
2022/10/22 07:53:43;;;;;;;10.93;8.60;;;24.20;99.30;;;;;;5040311;28;20447;-77
2022/10/22 07:56:10;;;;;;;9.87;8.87;;;23.70;99.10;;;;;;5060003;28;20446;-75
2022/10/22 07:58:40;;;;;;;9.33;8.43;;;23.00;99.90;;;;;;5056801;28;20470;-77
2022/10/22 08:01:07;;;;;;;10.27;9.10;;;22.10;99.90;;;;;;5058247;28;20481;-75
2022/10/22 08:03:35;;;;;;;10.40;9.40;;;21.30;99.90;;;;;;5057079;28;20478;-76
2022/10/22 08:06:02;;;;;;;12.70;9.70;;;20.80;99.90;;;;;;5051690;28;20497;-75
2022/10/22 08:08:30;;;;;;;9.57;8.63;;;20.20;99.90;;;;;;5045932;28;20471;-73
2022/10/22 08:11:00;;;;;;;9.77;8.77;;;20.10;99.90;;;;;;5040792;28;20523;-75
2022/10/22 08:13:29;;;;;;;10.47;8.83;;;20.20;99.90;;;;;;5040595;28;20459;-74
2022/10/22 08:15:58;;;;;;;14.10;10.60;;;20.30;99.90;;;;;;5046026;28;20956;-75
2022/10/22 08:18:25;;;;;;;15.60;9.23;;;20.70;99.90;;;;;;5049879;28;20545;-75
2022/10/22 08:20:54;;;;;;;11.40;9.27;;;21.60;99.90;;;;;;5044607;28;20447;-80
2022/10/22 08:23:21;;;;;;;13.33;8.00;;;21.90;99.90;;;;;;5047883;28;20469;-75
2022/10/22 08:25:48;;;;;;;9.63;7.17;;;22.50;99.90;;;;;;5041794;28;20929;-74
2022/10/22 08:28:15;;;;;;;9.10;8.30;;;23.50;99.90;;;;;;5049792;28;20964;-76
2022/10/22 08:30:43;;;;;;;10.50;7.77;;;24.60;99.90;;;;;;5049894;28;20456;-75
2022/10/22 08:33:12;;;;;;;11.27;8.30;;;25.30;98.30;;;;;;5053385;28;20913;-75
2022/10/22 08:35:39;;;;;;;8.63;7.50;;;26.00;96.00;;;;;;5050996;28;20955;-75
2022/10/22 08:38:06;;;;;;;8.43;6.60;;;26.20;95.40;;;;;;5047854;28;20481;-76
2022/10/22 08:40:37;;;;;;;9.33;7.83;;;26.50;94.50;;;;;;5054286;28;20779;-74
2022/10/22 08:43:37;;;;;;;7.47;6.37;;;26.60;94.00;;;;;;5051385;28;20522;-74
2022/10/22 08:46:23;;;;;;;10.13;5.43;;;27.00;93.20;;;;;;5050786;28;20485;-74
2022/10/22 08:48:53;;;;;;;6.97;5.90;;;27.50;92.20;;;;;;5052430;28;20524;-74
2022/10/22 08:51:24;;;;;;;7.77;6.63;;;27.20;92.70;;;;;;5046002;28;20438;-75
2022/10/22 08:54:13;;;;;;;11.57;7.13;;;27.40;92.20;;;;;;5053184;28;20476;-77
2022/10/22 08:56:43;;;;;;;9.00;5.50;;;27.60;91.60;;;;;;5050919;28;20433;-74
2022/10/22 08:59:17;;;;;;;10.80;6.23;;;27.30;91.40;;;;;;5060554;28;20561;-73
2022/10/22 09:01:47;;;;;;;7.13;5.50;;;27.00;92.00;;;;;;5062244;28;20460;-77
2022/10/22 09:04:24;;;;;;;8.83;5.07;;;26.70;91.50;;;;;;5062574;28;20481;-75
2022/10/22 09:06:53;;;;;;;10.27;5.70;;;25.70;93.50;;;;;;5040965;28;20544;-75
2022/10/22 09:09:38;;;;;;;7.63;5.60;;;25.60;93.90;;;;;;5036087;28;20478;-78
2022/10/22 09:12:07;;;;;;;7.63;5.57;;;25.60;94.10;;;;;;5041632;28;20462;-74
2022/10/22 09:14:35;;;;;;;5.00;4.50;;;24.70;95.50;;;;;;5040442;28;20505;-74
2022/10/22 09:17:13;;;;;;;16.73;8.07;;;24.00;97.60;;;;;;5028288;28;20629;-78
2022/10/22 09:19:58;;;;;;;13.43;4.80;;;23.30;99.90;;;;;;5030848;28;20977;-77
2022/10/22 09:22:38;;;;;;;7.23;4.53;;;23.00;99.90;;;;;;5031290;28;21620;-76
2022/10/22 09:25:19;;;;;;;8.30;6.80;;;23.10;99.90;;;;;;5030440;28;21111;-77
2022/10/22 09:27:47;;;;;;;7.60;5.50;;;22.60;99.90;;;;;;5032825;28;20477;-76
2022/10/22 09:30:17;;;;;;;7.63;5.70;;;22.60;99.90;;;;;;5026696;28;20446;-80
2022/10/22 09:32:44;;;;;;;10.27;6.37;;;22.40;99.90;;;;;;5031198;28;20496;-80
2022/10/22 09:35:15;;;;;;;14.43;4.87;;;22.60;99.90;;;;;;5033227;28;20546;-78
2022/10/22 09:37:50;;;;;;;8.37;4.37;;;22.80;99.90;;;;;;5034099;28;20474;-75
2022/10/22 09:40:18;;;;;;;8.70;5.07;;;23.10;99.90;;;;;;5035405;28;20534;-80
2022/10/22 09:42:47;;;;;;;7.40;4.30;;;23.40;99.90;;;;;;5033243;28;20549;-78
2022/10/22 09:45:23;;;;;;;5.93;4.60;;;23.60;99.90;;;;;;5037277;28;20501;-77
2022/10/22 09:47:50;;;;;;;8.83;4.73;;;23.60;99.90;;;;;;5049930;28;20496;-79
2022/10/22 09:50:28;;;;;;;8.07;5.23;;;23.70;99.90;;;;;;5038662;28;20578;-78
2022/10/22 09:52:59;;;;;;;12.10;3.87;;;23.60;99.90;;;;;;5034998;28;20530;-76
2022/10/22 09:55:28;;;;;;;6.30;5.27;;;23.60;99.90;;;;;;5040593;28;20734;-77
2022/10/22 09:57:59;;;;;;;6.43;4.50;;;23.30;99.90;;;;;;5047793;28;20469;-74
2022/10/22 10:00:27;;;;;;;8.80;4.73;;;22.70;99.90;;;;;;5037216;28;20526;-76
2022/10/22 10:02:57;;;;;;;9.53;4.97;;;22.60;99.90;;;;;;5035127;28;20461;-77
2022/10/22 10:05:30;;;;;;;9.33;4.83;;;22.50;99.90;;;;;;5033141;28;20490;-78
2022/10/22 10:07:58;;;;;;;8.23;5.20;;;22.90;99.90;;;;;;5031239;28;20474;-76
2022/10/22 10:10:35;;;;;;;9.53;4.50;;;23.20;99.90;;;;;;5033143;28;20463;-75
2022/10/22 10:13:18;;;;;;;12.30;5.67;;;23.10;99.90;;;;;;5029393;28;20454;-75
2022/10/22 10:15:53;;;;;;;7.87;4.90;;;22.60;99.90;;;;;;5032237;28;20538;-76
2022/10/22 10:18:36;;;;;;;13.33;4.13;;;22.10;99.90;;;;;;5027467;28;20469;-76
2022/10/22 10:21:13;;;;;;;5.93;4.60;;;22.50;99.90;;;;;;5030416;28;21142;-78
2022/10/22 10:23:52;;;;;;;5.30;4.00;;;22.10;99.90;;;;;;5032652;28;21376;-78
2022/10/22 10:26:28;;;;;;;7.33;4.50;;;21.70;99.90;;;;;;5034571;28;20522;-78
2022/10/22 10:29:06;;;;;;;10.70;4.70;;;21.40;99.90;;;;;;5032200;28;20477;-76
2022/10/22 10:31:45;;;;;;;14.17;5.87;;;21.40;99.90;;;;;;5031956;28;20450;-77
2022/10/22 10:34:25;;;;;;;11.93;5.70;;;21.20;99.90;;;;;;5031922;28;20537;-77
2022/10/22 10:37:01;;;;;;;13.23;5.73;;;21.30;99.90;;;;;;5032024;28;20455;-76
2022/10/22 10:39:39;;;;;;;8.77;5.17;;;21.70;99.90;;;;;;5035118;28;20497;-78
2022/10/22 10:42:15;;;;;;;10.37;5.57;;;21.70;99.90;;;;;;5046394;28;20526;-77
2022/10/22 10:45:03;;;;;;;12.37;5.27;;;21.60;99.90;;;;;;5055642;28;20470;-80
2022/10/22 10:48:02;;;;;;;9.73;4.97;;;21.50;99.90;;;;;;5049167;28;20481;-79
2022/10/22 10:50:34;;;;;;;7.53;4.60;;;21.50;99.90;;;;;;5045734;28;20446;-79
2022/10/22 10:53:16;;;;;;;8.83;5.77;;;21.30;99.90;;;;;;5052683;28;20796;-79
2022/10/22 10:55:56;;;;;;;8.80;4.77;;;21.50;99.90;;;;;;5050530;28;20465;-80
2022/10/22 10:58:31;;;;;;;9.70;5.03;;;21.70;99.90;;;;;;5057739;28;20465;-78
2022/10/22 11:01:05;;;;;;;8.80;4.70;;;21.80;99.90;;;;;;5062239;28;20466;-82
2022/10/22 11:03:48;;;;;;;7.40;5.27;;;21.80;99.90;;;;;;5060312;28;20518;-81
2022/10/22 11:06:16;;;;;;;9.63;5.00;;;21.30;99.90;;;;;;5051699;28;20479;-79
2022/10/22 11:08:53;;;;;;;6.47;3.93;;;21.10;99.90;;;;;;5066556;28;20480;-80
2022/10/22 11:11:26;;;;;;;7.20;4.13;;;20.80;99.90;;;;;;5054612;28;20446;-78
2022/10/22 11:13:57;;;;;;;6.17;4.60;;;20.70;99.90;;;;;;5059719;28;20532;-79
2022/10/22 11:16:31;;;;;;;14.13;5.10;;;20.60;99.90;;;;;;5055792;28;20446;-79
2022/10/22 11:19:05;;;;;;;14.80;4.60;;;20.70;99.90;;;;;;5057037;28;20464;-83
2022/10/22 11:21:38;;;;;;;7.60;4.30;;;20.60;99.90;;;;;;5050887;28;20554;-80
2022/10/22 11:24:17;;;;;;;9.23;3.40;;;20.30;99.90;;;;;;5055767;28;20511;-79
2022/10/22 11:26:48;;;;;;;17.87;11.10;;;20.00;99.90;;;;;;5055426;28;20575;-80
2022/10/22 11:29:21;;;;;;;5.60;3.80;;;20.00;99.90;;;;;;5055945;28;20470;-80
2022/10/22 11:31:49;;;;;;;8.80;4.30;;;19.60;99.90;;;;;;5056088;28;20472;-79
2022/10/22 11:34:21;;;;;;;10.30;3.80;;;19.70;99.90;;;;;;5057013;28;20996;-82
2022/10/22 11:36:49;;;;;;;12.13;4.90;;;19.60;99.90;;;;;;5056660;28;20540;-79
2022/10/22 11:39:49;;;;;;;7.80;3.67;;;19.40;99.90;;;;;;5061203;28;20466;-79
2022/10/22 11:42:20;;;;;;;7.40;4.47;;;19.30;99.90;;;;;;5022056;28;20446;-79
2022/10/22 11:45:00;;;;;;;7.83;3.60;;;19.20;99.90;;;;;;5067816;28;20922;-79
2022/10/22 11:47:29;;;;;;;14.50;4.60;;;19.10;99.90;;;;;;5060453;28;20430;-79
2022/10/22 11:49:59;;;;;;;10.13;3.73;;;19.00;99.90;;;;;;5042840;28;20506;-79
2022/10/22 11:52:38;;;;;;;11.27;4.90;;;19.00;99.90;;;;;;5055843;28;20852;-79
2022/10/22 11:55:32;;;;;;;8.53;5.00;;;18.70;99.90;;;;;;5056819;28;20466;-79
2022/10/22 11:58:03;;;;;;;11.80;4.80;;;18.70;99.90;;;;;;5049485;28;20549;-81
2022/10/22 12:00:39;;;;;;;11.70;3.70;;;18.90;99.90;;;;;;5052514;28;20947;-80
2022/10/22 12:03:18;;;;;;;10.23;5.37;;;19.20;99.90;;;;;;5053491;28;20480;-78
2022/10/22 12:05:46;;;;;;;9.20;6.67;;;19.10;99.90;;;;;;5055219;28;20557;-81
2022/10/22 12:08:32;;;;;;;8.80;3.73;;;19.30;99.90;;;;;;5056810;28;20474;-76
2022/10/22 12:11:14;;;;;;;6.90;3.90;;;19.50;99.90;;;;;;5054419;28;20521;-83
2022/10/22 12:14:03;;;;;;;6.70;3.90;;;19.70;99.90;;;;;;5052007;28;20446;-74
2022/10/22 12:16:37;;;;;;;7.63;3.43;;;19.70;99.90;;;;;;5042549;28;20422;-76
2022/10/22 12:19:12;;;;;;;9.07;3.47;;;19.70;99.90;;;;;;5048934;28;20473;-76
2022/10/22 12:21:41;;;;;;;8.77;3.50;;;20.00;99.90;;;;;;5050216;28;20798;-76
2022/10/22 12:24:14;;;;;;;6.90;3.47;;;20.00;99.90;;;;;;5046629;28;20507;-76
2022/10/22 12:26:44;;;;;;;7.47;4.03;;;20.20;99.90;;;;;;5048420;28;20571;-78
2022/10/22 12:29:13;;;;;;;13.13;4.10;;;20.20;99.90;;;;;;5043553;28;20474;-77
2022/10/22 12:31:43;;;;;;;9.60;3.53;;;20.10;99.90;;;;;;5051869;28;20545;-75
2022/10/22 12:34:14;;;;;;;6.10;3.37;;;19.90;99.90;;;;;;5050598;28;20456;-76
2022/10/22 12:36:41;;;;;;;5.97;3.60;;;19.90;99.90;;;;;;5052819;28;20442;-76
2022/10/22 12:39:13;;;;;;;7.13;2.83;;;19.50;99.90;;;;;;5048628;28;20813;-78
2022/10/22 12:41:42;;;;;;;10.97;3.63;;;19.70;99.90;;;;;;5044964;28;20465;-78
2022/10/22 12:44:12;;;;;;;7.67;3.33;;;19.50;99.90;;;;;;5053318;28;20502;-78
2022/10/22 12:46:39;;;;;;;17.57;8.47;;;19.60;99.90;;;;;;5048243;28;20480;-76
2022/10/22 12:49:13;;;;;;;13.00;3.67;;;19.50;99.90;;;;;;5054702;28;20542;-76
2022/10/22 12:51:41;;;;;;;7.77;4.40;;;19.50;99.90;;;;;;5054468;28;20485;-77